This is the latest recevied weather packets stored in our database for station/object VO2AGO. If no packets are shown the sender has not sent any weather packets the latest 10 day(s).
| Time | Temp. | Humidity | Pressure | Rain* | Wind** | Luminosity | Snow |
|---|---|---|---|---|---|---|---|
| 1777424301 | 8.89° C | 86% | 101.8 hPa | 0 mm | 0 m/s | 0 W/m² | - |
| 1777423852 | 8.89° C | 86% | 101.8 hPa | 0 mm | 0 m/s | 0 W/m² | - |
| 1777423402 | 8.89° C | 87% | 101.8 hPa | 0 mm | 0 m/s | 0 W/m² | - |
| 1777422952 | 8.89° C | 82% | 101.8 hPa | 0 mm | 0 m/s | 0 W/m² | - |
| 1777422502 | 8.89° C | 83% | 101.8 hPa | 0 mm | 0 m/s | 0 W/m² | - |
| 1777422052 | 9.44° C | 82% | 101.8 hPa | 0 mm | 0 m/s | 0 W/m² | - |
| 1777421602 | 8.89° C | 86% | 101.8 hPa | 0 mm | 0 m/s | 1 W/m² | - |
| 1777421152 | 8.89° C | 78% | 101.8 hPa | 0 mm | 0 m/s | 2 W/m² | - |
| 1777420702 | 9.44° C | 72% | 101.8 hPa | 0 mm | 0 m/s | 5 W/m² | - |
| 1777420251 | 10° C | 68% | 101.8 hPa | 0 mm | 0 m/s | 9 W/m² | - |
| 1777419802 | 10° C | 67% | 101.8 hPa | 0 mm | 0 m/s | 16 W/m² | - |
| 1777419352 | 10.56° C | 63% | 101.8 hPa | 0 mm | 0 m/s | 27 W/m² | - |
| 1777418902 | 11.11° C | 61% | 101.9 hPa | 0 mm | 0 m/s | 40 W/m² | - |
| 1777418451 | 10.56° C | 62% | 101.9 hPa | 0 mm | 0 m/s | 53 W/m² | - |
| 1777418002 | 11.11° C | 59% | 101.9 hPa | 0 mm | 0 m/s | 65 W/m² | - |
| 1777417552 | 10.56° C | 61% | 101.9 hPa | 0 mm | 0 m/s | 86 W/m² | - |
| 1777417102 | 10.56° C | 62% | 101.9 hPa | 0 mm | 0 m/s | 110 W/m² | - |
| 1777416652 | 11.11° C | 61% | 101.9 hPa | 0 mm | 0 m/s | 136 W/m² | - |
| 1777416201 | 10.56° C | 63% | 101.9 hPa | 0 mm | 0 m/s | 172 W/m² | - |
| 1777415752 | 11.67° C | 57% | 101.9 hPa | 0 mm | 0 m/s | 235 W/m² | - |
| 1777415302 | 11.67° C | 58% | 101.9 hPa | 0 mm | 0 m/s | 277 W/m² | - |
| 1777414852 | 11.67° C | 57% | 101.9 hPa | 0 mm | 0 m/s | 317 W/m² | - |
| 1777414401 | 11.67° C | 56% | 101.9 hPa | 0 mm | 0 m/s | 327 W/m² | - |
| 1777413953 | 11.67° C | 56% | 101.9 hPa | 0 mm | 0 m/s | 337 W/m² | - |
| 1777413502 | 11.11° C | 59% | 101.9 hPa | 0 mm | 0 m/s | 354 W/m² | - |
* Rain latest hour (hover to see other rain measurements)
** Current wind speed in m/s (hover to see current wind gust speed)